West Case, Maryland
Current Conditions -  °F | °C
As of 8:54 PM on Thursday 20 Nov 2014 (Local Time) from KBWI Reporting Station
Few Clouds Few Clouds  
Wind Chill: 28°   Ceiling: Unl
Heat Index: 37°   Visibility: 10mi
Dew Point: 10°   Wind: 16mph
Humidity: 33%   Direction: 300°WNW
Pressure: 30.03"   Gusts: 22mph
Location:  39.294°N, 76.6226°W
Report Text: KBWI 210154Z 30014G19KT 10SM FEW090 03/M12 A3003 RMK AO2 SLP169 T00281122
Loading
Personal Weather Stations






























Interactive Weather Map New forecast layout! Learn more

10-Day Weather Forecast

Advertisements
Track Severe Weather on mobile